Tuesday, January 15, 2019, 7:07 PM EST
Back to Local

KBFD, Bradford Regional Airport

Location: Cyclone, PA, United States Lat: 41.8
Local Time: 7:07 PM EST ( 0:07 GMT) Lon: -78.633
Time Zone: US/Eastern Elev: 2142 ft

Show me the last for .
Show Coded

Time T Td Feel RH Dir Speed Gust Alt SLP Vis Weather Sky Remarks
2019-01-15 18:53 23 17 14 77 220° 8 - 30.00 30.09 10 OVC015 6-hr Min Temp (7pm): 21.0°F
6-hr Max Temp (7pm): 24.1°F
2019-01-15 17:53 23 16 14 74 230° 8 - 30.01 30.10 10 OVC017 None
2019-01-15 17:14 22 15 17 74 200° 3 - 30.02 - 10 BKN018 OVC043 None
2019-01-15 16:53 23 15 17 71 220° 5 - 30.03 30.11 10 OVC043 None
2019-01-15 15:53 24 16 17 70 230° 6 - 30.03 30.11 10 OVC041 None
2019-01-15 15:12 23 16 14 74 230° 8 - 30.04 - 10 FEW017 OVC043 None
2019-01-15 14:53 23 16 16 74 Variable 6 - 30.04 30.12 10 BKN016 OVC042 None
2019-01-15 14:08 22 15 13 74 220° 8 - 30.04 - 10 OVC015 None
2019-01-15 13:53 22 16 14 77 Variable 6 - 30.04 30.12 10 OVC014 None
2019-01-15 12:53 21 15 12 77 230° 7 - 30.06 30.15 10 OVC013 6-hr Min Temp (1pm): 18.0°F
6-hr Max Temp (1pm): 21.9°F
2019-01-15 11:53 21 15 11 77 210° 9 - 30.09 30.18 10 OVC013 None
2019-01-15 10:53 21 15 11 77 220° 9 - 30.11 30.20 10 OVC013 None
2019-01-15 09:53 19 14 11 80 Variable 6 - 30.12 30.21 10 OVC012 None
2019-01-15 08:53 19 14 12 80 Variable 5 - 30.10 30.19 10 OVC012 None
2019-01-15 07:53 18 14 11 84 250° 5 - 30.10 30.19 10 OVC010 None
2019-01-15 07:42 18 14 10 84 260° 6 - 30.11 - 10 OVC010 None
2019-01-15 06:53 18 14 11 84 Variable 5 - 30.10 30.19 10 OVC009 6-hr Min Temp (7am): 17.1°F
6-hr Max Temp (7am): 18.0°F
2019-01-15 05:53 17 14 10 87 Variable 5 - 30.09 30.17 10 OVC008 None
2019-01-15 04:53 17 14 10 87 280° 5 - 30.09 30.16 10 OVC008 None
2019-01-15 03:53 17 14 8 87 300° 7 - 30.10 30.17 10 OVC008 None
2019-01-15 02:53 17 14 7 87 290° 8 - 30.11 30.18 10 OVC007 None
2019-01-15 01:53 17 14 8 87 280° 7 - 30.10 30.18 10 OVC007 None
2019-01-15 01:11 17 14 9 87 280° 6 - 30.09 - 10 BKN007 None
2019-01-15 00:53 17 14 8 87 300° 7 - 30.09 30.17 10 SCT007 6-hr Min Temp (1am): 17.1°F
6-hr Max Temp (1am): 25.0°F
2019-01-14 23:53 18 15 9 88 300° 7 - 30.10 30.18 9 BKN006 24-hr Min Temp (12am): -0.9°F
24-hr Max Temp (12am): 33.1°F
2019-01-14 22:53 19 17 10 91 290° 7 - 30.11 30.20 9 BKN006 None
2019-01-14 22:45 19 16 10 87 300° 7 - 30.11 - 9 SCT006 None
2019-01-14 21:53 21 15 12 77 290° 7 - 30.11 30.20 10 CLR None
2019-01-14 20:53 23 12 14 62 290° 8 - 30.11 30.22 10 CLR None
2019-01-14 19:53 24 9 16 51 300° 7 - 30.11 30.22 10 CLR None

Support USWX by starting your Amazon purchase here.